Time;durP1;ratioP1;P1;durP2;ratioP2;P2;SDS_P1;SDS_P2;PMS_P1;PMS_P2;Temp;Humidity;BMP_temperature;BMP_pressure;BME280_temperature;BME280_humidity;BME280_pressure;Samples;Min_cycle;Max_cycle;Signal;HPM_P1;HPM_P2
2023/10/07 00:00:28;;;;;;;6.63;3.83;;;;;;;13.96;78.25;99985.53;5127869;27;20196;-65
2023/10/07 00:02:56;;;;;;;6.27;3.77;;;;;;;13.95;78.12;99983.81;5133585;27;20263;-67
2023/10/07 00:05:32;;;;;;;6.60;3.53;;;;;;;13.98;77.92;99986.34;5132548;27;20203;-66
2023/10/07 00:08:03;;;;;;;6.77;3.70;;;;;;;14.00;77.65;99990.59;5121144;27;20218;-66
2023/10/07 00:10:36;;;;;;;6.73;4.07;;;;;;;14.02;77.52;99993.97;5126377;27;20200;-67
2023/10/07 00:13:09;;;;;;;5.20;3.70;;;;;;;14.01;77.44;99992.28;5129961;27;20207;-67
2023/10/07 00:15:37;;;;;;;5.47;3.63;;;;;;;14.04;77.02;99990.50;5128502;27;20666;-65
2023/10/07 00:18:11;;;;;;;6.10;3.87;;;;;;;14.02;76.45;99986.19;5123100;27;20214;-68
2023/10/07 00:20:44;;;;;;;5.93;3.60;;;;;;;14.02;76.63;99978.44;5128047;27;20207;-67
2023/10/07 00:23:16;;;;;;;5.07;3.70;;;;;;;14.05;76.59;99961.13;5128823;27;20211;-69
2023/10/07 00:25:49;;;;;;;7.43;3.40;;;;;;;14.09;75.74;99962.72;5126451;27;20208;-66
2023/10/07 00:28:27;;;;;;;5.67;3.67;;;;;;;14.09;76.04;99957.56;5125229;27;20568;-67
2023/10/07 00:30:59;;;;;;;4.53;3.20;;;;;;;14.13;75.78;99943.63;5123173;27;20223;-68
2023/10/07 00:33:27;;;;;;;5.50;3.10;;;;;;;14.14;75.17;99940.13;5130529;27;20215;-68
2023/10/07 00:36:04;;;;;;;5.83;3.90;;;;;;;14.14;75.19;99935.81;5124710;27;20203;-69
2023/10/07 00:38:38;;;;;;;5.90;3.23;;;;;;;14.17;75.16;99935.72;5118076;27;20702;-68
2023/10/07 00:41:11;;;;;;;4.17;3.23;;;;;;;14.20;75.00;99933.03;5123352;27;20239;-68
2023/10/07 00:43:39;;;;;;;5.03;3.50;;;;;;;14.22;75.12;99917.47;5124793;27;20212;-68
2023/10/07 00:46:10;;;;;;;5.33;3.30;;;;;;;14.23;74.56;99924.34;5119375;27;20215;-68
2023/10/07 00:48:45;;;;;;;6.00;3.43;;;;;;;14.24;73.93;99915.66;5125040;27;20226;-68
2023/10/07 00:51:17;;;;;;;6.07;3.60;;;;;;;14.26;73.92;99906.09;5117726;27;20207;-66
2023/10/07 00:54:15;;;;;;;7.13;3.17;;;;;;;14.29;74.04;99902.59;5129043;27;20616;-66
2023/10/07 00:56:41;;;;;;;5.63;3.00;;;;;;;14.33;73.60;99899.84;5115672;27;20264;-67
2023/10/07 00:59:10;;;;;;;4.73;3.63;;;;;;;14.36;73.11;99898.91;5119502;27;20203;-68
2023/10/07 01:01:39;;;;;;;6.13;3.10;;;;;;;14.37;72.93;99891.09;5126565;27;21327;-66
2023/10/07 01:04:07;;;;;;;3.90;3.03;;;;;;;14.39;72.97;99889.28;5121552;27;20211;-67
2023/10/07 01:06:39;;;;;;;4.90;3.10;;;;;;;14.43;72.92;99890.03;5120943;27;20210;-66
2023/10/07 01:09:14;;;;;;;4.23;3.17;;;;;;;14.43;72.62;99885.75;5119332;27;20651;-69
2023/10/07 01:11:46;;;;;;;7.07;3.13;;;;;;;14.46;73.36;99905.50;5125679;27;20210;-70
2023/10/07 01:14:14;;;;;;;5.10;3.23;;;;;;;14.44;74.31;99897.78;5129302;27;20192;-63
2023/10/07 01:16:43;;;;;;;7.10;3.37;;;;;;;14.41;75.13;99905.66;5123919;27;20207;-68
2023/10/07 01:19:30;;;;;;;5.60;3.13;;;;;;;14.34;75.65;99932.66;5122249;27;20210;-67
2023/10/07 01:22:09;;;;;;;7.07;3.67;;;;;;;14.21;77.40;99901.06;5122295;27;20867;-69
2023/10/07 01:24:45;;;;;;;5.43;2.97;;;;;;;14.07;79.23;99886.81;5118761;27;20642;-68
2023/10/07 01:27:22;;;;;;;5.40;3.30;;;;;;;13.93;80.83;99890.63;5128867;27;20592;-67
2023/10/07 01:29:59;;;;;;;5.97;3.77;;;;;;;13.81;81.52;99880.63;5121914;27;20195;-67
2023/10/07 01:32:32;;;;;;;8.37;4.10;;;;;;;13.74;82.69;99879.06;5121448;27;20260;-67
2023/10/07 01:35:05;;;;;;;6.10;3.93;;;;;;;13.64;83.25;99885.38;5128504;27;20256;-67
2023/10/07 01:37:43;;;;;;;6.73;3.60;;;;;;;13.57;83.67;99889.88;5127474;27;20231;-63
2023/10/07 01:40:16;;;;;;;5.37;2.97;;;;;;;13.47;83.65;99884.06;5118533;27;20207;-66
2023/10/07 01:42:45;;;;;;;4.83;3.57;;;;;;;13.42;84.16;99877.34;5117883;27;20696;-67
2023/10/07 01:45:21;;;;;;;8.10;3.67;;;;;;;13.40;84.35;99853.22;5123581;27;20207;-68
2023/10/07 01:47:53;;;;;;;6.20;3.53;;;;;;;13.42;84.36;99864.41;5124280;27;20306;-70
2023/10/07 01:50:23;;;;;;;5.70;4.00;;;;;;;13.39;83.88;99857.53;5129030;27;20196;-68
2023/10/07 01:52:55;;;;;;;6.27;3.83;;;;;;;13.35;83.73;99837.81;5124555;27;20203;-69
2023/10/07 01:55:27;;;;;;;5.97;3.47;;;;;;;13.35;84.25;99845.59;5124192;27;20727;-67
2023/10/07 01:57:56;;;;;;;6.43;4.07;;;;;;;13.36;84.13;99841.25;5125498;27;20204;-68
2023/10/07 02:00:40;;;;;;;6.73;3.73;;;;;;;13.37;84.12;99830.88;5119730;27;20227;-68
2023/10/07 02:03:13;;;;;;;4.13;3.30;;;;;;;13.34;83.67;99817.16;5124245;27;20214;-70
2023/10/07 02:05:46;;;;;;;4.83;4.00;;;;;;;13.33;83.86;99802.50;5125222;27;20542;-67
2023/10/07 02:08:18;;;;;;;6.30;3.87;;;;;;;13.31;83.93;99799.97;5125272;27;20322;-68
2023/10/07 02:10:49;;;;;;;6.03;3.70;;;;;;;13.31;83.35;99806.91;5126779;27;20710;-68
2023/10/07 02:13:19;;;;;;;4.63;3.93;;;;;;;13.31;83.53;99807.75;5126425;27;20195;-67
2023/10/07 02:15:48;;;;;;;5.33;3.33;;;;;;;13.33;83.76;99799.94;5124688;27;21011;-69
2023/10/07 02:18:19;;;;;;;5.13;3.83;;;;;;;13.35;83.00;99793.81;5125066;27;20623;-68
2023/10/07 02:20:52;;;;;;;7.93;3.50;;;;;;;13.37;83.27;99797.25;5123664;27;20276;-69
2023/10/07 02:23:34;;;;;;;4.87;3.20;;;;;;;13.41;82.50;99811.78;5125480;27;20215;-67
2023/10/07 02:26:05;;;;;;;4.30;3.40;;;;;;;13.45;82.58;99805.63;5121751;27;20203;-66
2023/10/07 02:28:34;;;;;;;6.77;3.37;;;;;;;13.46;81.92;99794.38;5123329;27;20211;-68
2023/10/07 02:31:07;;;;;;;5.00;3.50;;;;;;;13.44;81.10;99793.59;5125771;27;20199;-65
2023/10/07 02:33:42;;;;;;;5.20;3.20;;;;;;;13.49;81.26;99790.88;5124715;27;20202;-67
2023/10/07 02:36:21;;;;;;;4.67;3.20;;;;;;;13.52;80.67;99783.03;5120246;27;20213;-68
2023/10/07 02:38:52;;;;;;;3.97;2.80;;;;;;;13.57;80.34;99783.72;5117223;28;20206;-66
2023/10/07 02:41:21;;;;;;;4.33;3.20;;;;;;;13.59;79.85;99797.50;5123667;28;20294;-66
2023/10/07 02:43:49;;;;;;;4.33;3.50;;;;;;;13.61;79.35;99780.16;5123867;28;20310;-69
2023/10/07 02:46:34;;;;;;;6.43;3.10;;;;;;;13.64;79.21;99774.06;5121907;28;20200;-67
2023/10/07 02:49:09;;;;;;;5.70;3.30;;;;;;;13.66;78.70;99773.13;5123929;28;20593;-68
2023/10/07 02:51:45;;;;;;;4.47;2.73;;;;;;;13.70;78.47;99766.13;5121339;28;20206;-70
2023/10/07 02:54:18;;;;;;;6.80;3.23;;;;;;;13.72;77.84;99766.91;5121051;28;20286;-67
2023/10/07 02:56:54;;;;;;;4.40;2.80;;;;;;;13.72;77.10;99754.81;5125383;28;20204;-69
2023/10/07 02:59:28;;;;;;;4.23;3.20;;;;;;;13.74;77.11;99759.97;5120885;28;20199;-66
2023/10/07 03:04:43;;;;;;;5.00;3.23;;;;;;;13.77;75.87;99745.19;5119301;28;20260;-68
2023/10/07 03:07:15;;;;;;;5.07;2.90;;;;;;;13.81;76.01;99745.06;5121431;27;20670;-67
2023/10/07 03:09:51;;;;;;;4.90;2.80;;;;;;;13.85;76.33;99742.38;5130866;28;20545;-68
2023/10/07 03:12:27;;;;;;;5.73;3.33;;;;;;;13.86;75.34;99736.28;5124496;28;20200;-67
2023/10/07 03:14:57;;;;;;;5.03;2.93;;;;;;;13.85;74.91;99734.59;5121282;28;20207;-67
2023/10/07 03:17:37;;;;;;;4.93;2.93;;;;;;;13.85;75.02;99726.84;5123765;28;20283;-68
2023/10/07 03:25:51;;;;;;;5.07;3.20;;;;;;;13.93;74.15;99717.09;5120571;28;20238;-67
2023/10/07 03:28:21;;;;;;;4.53;3.27;;;;;;;13.96;74.08;99709.22;5117290;28;20245;-67
2023/10/07 03:30:51;;;;;;;4.50;2.90;;;;;;;13.98;73.35;99710.00;5130328;27;20206;-67
2023/10/07 03:33:23;;;;;;;7.77;2.97;;;;;;;13.99;73.07;99709.13;5124113;28;20252;-69
2023/10/07 03:36:09;;;;;;;7.13;3.20;;;;;;;14.00;72.80;99697.88;5121549;28;20234;-69
2023/10/07 03:38:39;;;;;;;4.70;2.57;;;;;;;14.02;73.13;99688.28;5116580;28;20717;-68
2023/10/07 03:41:09;;;;;;;5.10;2.70;;;;;;;14.05;72.51;99695.13;5125534;28;20653;-67
2023/10/07 03:43:41;;;;;;;6.67;2.87;;;;;;;14.09;72.71;99698.47;5127532;28;20662;-66
2023/10/07 03:46:09;;;;;;;4.87;2.93;;;;;;;14.10;72.41;99689.78;5131713;27;20199;-67
2023/10/07 03:48:39;;;;;;;4.27;2.80;;;;;;;14.11;72.30;99692.34;5123228;27;20200;-65
2023/10/07 03:51:08;;;;;;;4.33;2.63;;;;;;;14.14;72.09;99681.03;5131503;27;20203;-68
2023/10/07 03:53:44;;;;;;;4.67;2.97;;;;;;;14.17;71.50;99670.56;5125115;27;20593;-68
2023/10/07 03:56:13;;;;;;;6.23;2.90;;;;;;;14.19;71.39;99673.97;5129014;27;20571;-66
2023/10/07 03:58:43;;;;;;;3.67;2.67;;;;;;;14.20;71.48;99673.06;5120873;27;20199;-67
2023/10/07 04:01:16;;;;;;;6.33;2.83;;;;;;;14.23;72.07;99670.38;5118511;27;20654;-67
2023/10/07 04:03:47;;;;;;;4.93;2.80;;;;;;;14.23;72.02;99662.59;5125688;27;20203;-66
2023/10/07 04:06:17;;;;;;;4.40;2.70;;;;;;;14.22;72.16;99661.75;5124896;27;20678;-67
2023/10/07 04:08:46;;;;;;;6.77;2.87;;;;;;;14.23;71.87;99655.66;5124895;27;20233;-68
2023/10/07 04:11:16;;;;;;;3.83;2.57;;;;;;;14.25;72.07;99668.59;5125449;27;20199;-69
2023/10/07 04:13:53;;;;;;;5.83;3.13;;;;;;;14.24;72.23;99665.13;5128689;27;20289;-69
2023/10/07 04:16:24;;;;;;;7.10;2.73;;;;;;;14.22;72.74;99655.72;5130387;27;20248;-66
2023/10/07 04:19:06;;;;;;;6.67;2.83;;;;;;;14.23;72.67;99668.63;5125003;27;20226;-69
2023/10/07 04:21:39;;;;;;;4.73;2.43;;;;;;;14.23;72.81;99663.44;5129880;27;20348;-67
2023/10/07 04:24:10;;;;;;;5.23;2.80;;;;;;;14.25;72.58;99668.59;5129194;27;20215;-66
2023/10/07 04:26:40;;;;;;;4.87;2.30;;;;;;;14.24;72.88;99656.50;5126773;27;20217;-69
2023/10/07 04:29:14;;;;;;;3.40;2.50;;;;;;;14.24;72.53;99643.56;5116658;27;20227;-68
2023/10/07 04:31:47;;;;;;;5.30;2.80;;;;;;;14.29;72.80;99648.63;5117797;27;20199;-69
2023/10/07 04:34:17;;;;;;;6.53;3.00;;;;;;;14.28;73.07;99652.91;5127518;27;20199;-68
2023/10/07 04:37:10;;;;;;;6.07;2.57;;;;;;;14.26;73.53;99644.38;5122008;27;20601;-69
2023/10/07 04:39:39;;;;;;;4.20;2.60;;;;;;;14.27;73.55;99656.41;5132983;27;20237;-66
2023/10/07 04:42:07;;;;;;;4.90;3.00;;;;;;;14.25;74.00;99647.88;5130179;27;20200;-67
2023/10/07 04:47:34;;;;;;;6.20;2.63;;;;;;;14.20;75.10;99649.75;5118881;27;20211;-67
2023/10/07 04:50:07;;;;;;;5.17;2.77;;;;;;;14.17;75.27;99655.00;5122687;27;20220;-68
2023/10/07 04:52:40;;;;;;;5.13;2.87;;;;;;;14.15;76.26;99649.06;5127427;27;20248;-64
2023/10/07 04:55:12;;;;;;;4.27;2.87;;;;;;;14.09;77.49;99636.28;5118180;27;20246;-68
2023/10/07 04:57:44;;;;;;;3.63;2.70;;;;;;;14.04;77.89;99644.22;5130332;27;20207;-66
2023/10/07 05:00:27;;;;;;;6.40;3.03;;;;;;;14.01;77.99;99654.66;5121511;27;20206;-64
2023/10/07 05:02:57;;;;;;;4.53;2.60;;;;;;;13.96;78.89;99647.06;5122547;27;20195;-68
2023/10/07 05:05:28;;;;;;;3.60;2.87;;;;;;;13.94;79.21;99648.84;5125671;27;20222;-68
2023/10/07 05:07:58;;;;;;;5.87;3.20;;;;;;;13.94;79.57;99642.81;5121007;27;20223;-68
2023/10/07 05:10:29;;;;;;;4.13;3.10;;;;;;;13.94;80.47;99648.84;5122260;27;20199;-68
2023/10/07 05:13:00;;;;;;;4.50;2.87;;;;;;;13.93;80.68;99646.31;5126407;27;20569;-69
2023/10/07 05:15:31;;;;;;;5.07;2.90;;;;;;;13.90;81.19;99639.47;5131665;27;20682;-67
2023/10/07 05:18:01;;;;;;;7.30;3.67;;;;;;;13.89;81.08;99632.59;5122298;27;20208;-71
2023/10/07 05:20:32;;;;;;;5.60;2.77;;;;;;;13.88;81.80;99632.63;5118912;27;20260;-67
2023/10/07 05:23:02;;;;;;;5.13;2.90;;;;;;;13.86;81.41;99637.88;5128821;27;20571;-71
2023/10/07 05:25:35;;;;;;;6.93;3.10;;;;;;;13.83;82.12;99622.44;5128266;27;20211;-67
2023/10/07 05:28:10;;;;;;;5.77;2.87;;;;;;;13.85;82.14;99623.25;5123800;27;20199;-66
2023/10/07 05:30:44;;;;;;;3.77;3.37;;;;;;;13.86;82.17;99630.09;5120405;27;20213;-67
2023/10/07 05:33:13;;;;;;;6.50;3.53;;;;;;;13.89;82.50;99629.16;5120308;27;20199;-68
2023/10/07 05:35:43;;;;;;;3.53;3.00;;;;;;;13.88;82.70;99628.31;5118444;27;20207;-70
2023/10/07 05:38:11;;;;;;;3.30;2.93;;;;;;;13.89;82.79;99619.66;5118994;27;20710;-70
2023/10/07 05:40:40;;;;;;;4.10;2.87;;;;;;;13.90;83.13;99623.94;5124195;27;20203;-66
2023/10/07 05:43:08;;;;;;;7.50;3.80;;;;;;;13.93;82.49;99636.78;5131753;27;20210;-67
2023/10/07 05:45:36;;;;;;;5.77;3.30;;;;;;;13.96;82.70;99626.34;5122380;27;20215;-72
2023/10/07 05:48:07;;;;;;;4.97;3.43;;;;;;;13.99;82.25;99646.09;5126393;27;20195;-66
2023/10/07 05:50:35;;;;;;;5.47;3.20;;;;;;;14.02;82.01;99644.25;5120886;27;20195;-68
2023/10/07 05:53:04;;;;;;;4.80;3.17;;;;;;;14.06;81.87;99651.94;5121880;27;20258;-68
2023/10/07 05:55:33;;;;;;;8.00;3.30;;;;;;;14.10;81.36;99648.34;5123356;27;20203;-68
2023/10/07 05:58:02;;;;;;;5.03;3.00;;;;;;;14.16;81.08;99653.34;5121904;27;20760;-68
2023/10/07 06:00:31;;;;;;;4.90;3.13;;;;;;;14.19;81.08;99655.81;5124692;27;20199;-66
2023/10/07 06:03:05;;;;;;;6.10;3.20;;;;;;;14.24;81.07;99662.53;5121651;27;20219;-68
2023/10/07 06:05:37;;;;;;;4.67;3.13;;;;;;;14.28;80.37;99637.38;5127006;27;20240;-70
2023/10/07 06:08:07;;;;;;;7.37;3.30;;;;;;;14.37;80.19;99644.84;5120781;27;20227;-69
2023/10/07 06:10:37;;;;;;;5.47;3.27;;;;;;;14.43;79.89;99646.38;5130305;27;20210;-67
2023/10/07 06:13:08;;;;;;;4.80;3.30;;;;;;;14.48;79.33;99641.91;5135905;27;20604;-66
2023/10/07 06:15:37;;;;;;;5.80;3.40;;;;;;;14.55;78.92;99655.53;5124491;27;20234;-68
2023/10/07 06:18:05;;;;;;;4.03;3.00;;;;;;;14.57;78.85;99659.75;5118312;27;20228;-68
2023/10/07 06:20:37;;;;;;;5.23;3.13;;;;;;;14.65;78.53;99651.72;5122559;27;20197;-67
2023/10/07 06:23:13;;;;;;;4.40;2.93;;;;;;;14.70;78.21;99647.22;5120455;27;20658;-67
2023/10/07 06:25:48;;;;;;;5.43;2.73;;;;;;;14.74;78.23;99628.06;5114694;27;20705;-67
2023/10/07 06:28:29;;;;;;;5.00;3.27;;;;;;;14.78;77.85;99637.44;5122612;27;20217;-66
2023/10/07 06:31:10;;;;;;;5.20;2.80;;;;;;;14.80;77.80;99635.66;5128004;27;20815;-69
2023/10/07 06:33:40;;;;;;;3.47;2.70;;;;;;;14.85;77.60;99649.28;5120845;27;20238;-68
2023/10/07 06:36:12;;;;;;;5.40;2.97;;;;;;;14.89;77.56;99626.66;5118030;27;20211;-63
2023/10/07 06:38:46;;;;;;;3.93;2.90;;;;;;;14.91;77.41;99620.53;5123046;27;20235;-67
2023/10/07 06:41:14;;;;;;;5.37;2.73;;;;;;;14.88;77.53;99633.63;5114209;27;20206;-65
2023/10/07 06:43:43;;;;;;;3.73;2.77;;;;;;;14.96;77.52;99656.69;5126706;28;20203;-68
2023/10/07 06:46:12;;;;;;;4.90;2.87;;;;;;;14.97;77.44;99648.84;5117040;28;20219;-69
2023/10/07 06:48:40;;;;;;;4.07;2.87;;;;;;;14.97;77.44;99637.63;5121551;28;20204;-67
2023/10/07 06:51:11;;;;;;;10.73;3.27;;;;;;;15.01;77.04;99643.53;5121735;28;20676;-69
2023/10/07 06:53:42;;;;;;;5.50;3.03;;;;;;;15.03;77.29;99641.75;5122085;27;20248;-68
2023/10/07 06:56:20;;;;;;;4.20;2.93;;;;;;;15.08;77.03;99640.66;5132377;27;20206;-67
2023/10/07 06:58:53;;;;;;;7.13;3.13;;;;;;;15.12;77.09;99657.81;5126020;28;20203;-71
2023/10/07 07:01:36;;;;;;;3.93;2.50;;;;;;;15.13;76.82;99656.94;5115523;27;20794;-69
2023/10/07 07:04:10;;;;;;;3.57;3.23;;;;;;;15.16;77.01;99648.16;5118394;28;20196;-67
2023/10/07 07:06:43;;;;;;;4.10;3.20;;;;;;;15.17;76.66;99645.53;5115643;28;20595;-68
2023/10/07 07:11:55;;;;;;;4.07;2.80;;;;;;;15.22;76.84;99658.34;5114382;27;20239;-69
2023/10/07 07:14:28;;;;;;;2.90;2.47;;;;;;;15.26;76.76;99639.16;5118699;28;20214;-68
2023/10/07 07:16:56;;;;;;;3.80;2.83;;;;;;;15.28;76.70;99634.75;5120419;28;20610;-70
2023/10/07 07:19:24;;;;;;;4.13;2.80;;;;;;;15.31;76.79;99639.81;5118842;28;20655;-69
2023/10/07 07:21:57;;;;;;;5.90;3.17;;;;;;;15.33;77.02;99635.41;5132008;27;20206;-69
2023/10/07 07:24:25;;;;;;;5.10;2.90;;;;;;;15.30;77.30;99630.34;5135997;27;20198;-68
2023/10/07 07:26:53;;;;;;;4.27;2.73;;;;;;;15.34;77.18;99647.47;5121922;27;20312;-68
2023/10/07 07:29:23;;;;;;;4.03;3.07;;;;;;;15.33;77.12;99614.66;5126074;27;20253;-68
2023/10/07 07:31:51;;;;;;;4.70;3.20;;;;;;;15.34;77.39;99644.06;5120810;27;20199;-70
2023/10/07 07:34:26;;;;;;;3.13;2.80;;;;;;;15.34;77.55;99641.44;5131907;27;20590;-67
2023/10/07 07:37:03;;;;;;;4.63;2.90;;;;;;;15.34;77.60;99650.09;5129213;27;20255;-69
2023/10/07 07:39:31;;;;;;;3.90;2.63;;;;;;;15.37;77.85;99641.34;5118344;27;20195;-67
2023/10/07 07:42:15;;;;;;;6.87;3.10;;;;;;;15.38;78.04;99640.44;5119806;27;20208;-67
2023/10/07 07:44:55;;;;;;;3.93;3.07;;;;;;;15.41;77.62;99648.94;5132652;27;20256;-68
2023/10/07 07:47:27;;;;;;;7.23;3.20;;;;;;;15.42;77.68;99635.06;5130382;27;20294;-67
2023/10/07 07:49:55;;;;;;;4.23;2.90;;;;;;;15.43;77.60;99644.56;5121376;27;20633;-64
2023/10/07 07:52:25;;;;;;;4.93;3.00;;;;;;;15.43;78.03;99652.34;5124350;27;20287;-61
2023/10/07 07:54:54;;;;;;;4.17;3.33;;;;;;;15.43;77.85;99647.16;5125617;27;20203;-62
2023/10/07 07:57:24;;;;;;;4.33;2.73;;;;;;;15.43;78.15;99641.97;5118216;27;20231;-62
2023/10/07 07:59:52;;;;;;;4.63;3.30;;;;;;;15.46;77.97;99630.59;5133822;27;20203;-62
2023/10/07 08:02:24;;;;;;;4.63;2.70;;;;;;;15.47;77.92;99627.13;5124186;27;20235;-63
2023/10/07 08:05:02;;;;;;;4.13;2.47;;;;;;;15.51;78.03;99627.84;5129978;27;20275;-61
2023/10/07 08:07:33;;;;;;;7.00;3.17;;;;;;;15.57;77.67;99630.19;5129382;27;20223;-62
2023/10/07 08:10:03;;;;;;;8.00;3.07;;;;;;;15.60;77.26;99623.13;5130544;27;20203;-63
2023/10/07 08:12:34;;;;;;;5.57;3.10;;;;;;;15.66;77.27;99622.09;5132018;27;20198;-62
2023/10/07 08:15:08;;;;;;;6.55;3.20;;;;;;;15.73;77.00;99630.50;5126917;27;20200;-61
2023/10/07 08:17:37;;;;;;;3.37;2.70;;;;;;;15.79;76.73;99631.06;5126783;27;20272;-63
2023/10/07 08:20:12;;;;;;;5.10;3.40;;;;;;;15.86;76.43;99616.94;5121120;27;20206;-62
2023/10/07 08:22:46;;;;;;;6.40;2.87;;;;;;;15.95;76.29;99618.31;5128153;27;20207;-68
2023/10/07 08:25:25;;;;;;;4.53;2.70;;;;;;;15.99;76.14;99619.88;5118216;27;20191;-63
2023/10/07 08:27:55;;;;;;;5.03;2.97;;;;;;;16.04;76.11;99617.94;5126791;27;20322;-62
2023/10/07 08:30:37;;;;;;;3.37;2.83;;;;;;;16.07;75.91;99619.56;5128185;27;20606;-67
2023/10/07 08:33:06;;;;;;;6.50;2.80;;;;;;;16.06;75.85;99620.50;5127315;27;20223;-67
2023/10/07 08:35:35;;;;;;;4.67;3.00;;;;;;;16.05;75.95;99629.19;5123813;27;20199;-64
2023/10/07 08:38:19;;;;;;;4.17;2.57;;;;;;;16.05;76.19;99656.00;5116648;27;20231;-63
2023/10/07 08:40:57;;;;;;;6.63;3.05;;;;;;;16.01;76.33;99643.19;5128238;27;20235;-67
2023/10/07 08:43:32;;;;;;;3.63;2.78;;;;;;;16.01;76.18;99632.81;5124058;27;20210;-63
2023/10/07 08:46:03;;;;;;;4.30;2.97;;;;;;;16.00;76.45;99639.75;5118356;27;20208;-63
2023/10/07 08:48:38;;;;;;;4.40;2.73;;;;;;;16.03;76.30;99639.66;5119394;27;20206;-63
2023/10/07 08:51:14;;;;;;;4.10;3.20;;;;;;;16.06;76.33;99646.47;5123530;27;20203;-63
2023/10/07 08:53:44;;;;;;;4.35;2.85;;;;;;;16.11;76.12;99645.38;5126450;27;20609;-63
2023/10/07 08:56:13;;;;;;;4.65;2.80;;;;;;;16.15;76.07;99656.50;5126401;27;20196;-62
2023/10/07 08:58:43;;;;;;;3.08;2.78;;;;;;;16.16;75.72;99655.56;5127056;27;20325;-63
2023/10/07 09:01:17;;;;;;;3.53;2.60;;;;;;;16.18;76.01;99664.16;5115597;27;20200;-62
2023/10/07 09:03:49;;;;;;;7.18;2.95;;;;;;;16.19;75.99;99650.25;5123458;27;20295;-62
2023/10/07 09:06:20;;;;;;;6.65;3.20;;;;;;;16.17;75.69;99675.47;5127365;27;20200;-61
2023/10/07 09:08:49;;;;;;;4.93;2.58;;;;;;;16.19;76.07;99681.44;5124727;27;20204;-60
2023/10/07 09:11:19;;;;;;;6.78;2.70;;;;;;;16.20;76.00;99670.16;5122924;27;20210;-63
2023/10/07 09:13:48;;;;;;;3.67;3.08;;;;;;;16.21;75.58;99664.06;5125951;27;20200;-63
2023/10/07 09:16:21;;;;;;;4.30;3.05;;;;;;;16.21;75.73;99666.66;5130562;27;20658;-62
2023/10/07 09:18:57;;;;;;;3.63;2.57;;;;;;;16.21;75.52;99664.06;5128225;27;20211;-63
2023/10/07 09:21:33;;;;;;;5.20;2.80;;;;;;;16.15;75.30;99664.28;5127888;27;20203;-62
2023/10/07 09:24:04;;;;;;;5.03;2.97;;;;;;;16.17;75.31;99680.69;5121489;27;20187;-62
2023/10/07 09:26:37;;;;;;;4.20;2.95;;;;;;;16.18;75.29;99669.38;5122776;27;20279;-63
2023/10/07 09:29:14;;;;;;;5.65;2.85;;;;;;;16.20;75.54;99677.97;5124267;27;20286;-64
2023/10/07 09:31:43;;;;;;;3.20;2.33;;;;;;;16.22;75.57;99681.31;5119929;27;20206;-61
2023/10/07 09:34:29;;;;;;;3.55;2.80;;;;;;;16.26;75.52;99663.84;5128232;27;20208;-62
2023/10/07 09:36:58;;;;;;;5.32;2.72;;;;;;;16.31;74.19;99675.78;5121558;27;20275;-61
2023/10/07 09:39:34;;;;;;;3.70;2.33;;;;;;;16.36;74.36;99665.19;5127921;27;20710;-61
2023/10/07 09:42:18;;;;;;;4.97;2.50;;;;;;;16.41;74.19;99684.03;5126998;27;20206;-60
2023/10/07 09:44:47;;;;;;;4.10;2.50;;;;;;;16.44;73.88;99670.91;5125985;27;20206;-60
2023/10/07 09:47:21;;;;;;;5.07;2.28;;;;;;;16.48;73.54;99656.00;5125088;27;20765;-59
2023/10/07 09:49:50;;;;;;;3.63;2.15;;;;;;;16.48;73.63;99656.00;5119682;27;20280;-60
2023/10/07 09:52:29;;;;;;;4.65;2.20;;;;;;;16.48;73.05;99695.88;5126836;27;20207;-62
2023/10/07 09:55:31;;;;;;;2.25;1.77;;;;;;;16.46;72.64;99699.44;5131645;27;20545;-60
2023/10/07 09:58:18;;;;;;;3.45;1.92;;;;;;;16.43;73.29;99703.03;5124219;27;20199;-61
2023/10/07 10:01:03;;;;;;;5.33;1.87;;;;;;;16.40;73.93;99706.59;5124504;27;20203;-61
2023/10/07 10:03:45;;;;;;;3.50;2.05;;;;;;;16.35;74.40;99716.34;5126969;27;20206;-60
2023/10/07 10:06:25;;;;;;;4.47;2.20;;;;;;;16.31;75.03;99719.97;5126264;27;20217;-60
2023/10/07 10:08:57;;;;;;;8.20;2.47;;;;;;;16.27;75.52;99713.19;5117275;27;20260;-62
2023/10/07 10:11:41;;;;;;;4.05;2.30;;;;;;;16.22;75.81;99709.94;5128989;27;20244;-61
2023/10/07 10:14:19;;;;;;;2.83;2.00;;;;;;;16.20;76.08;99706.56;5118671;27;20213;-61
2023/10/07 10:16:52;;;;;;;3.08;2.22;;;;;;;16.19;76.43;99708.28;5130859;27;20207;-60
2023/10/07 10:19:28;;;;;;;3.22;2.28;;;;;;;16.21;76.23;99713.44;5127296;27;20213;-61
2023/10/07 10:22:10;;;;;;;6.20;2.33;;;;;;;16.24;75.91;99702.94;5117711;27;20207;-61
2023/10/07 10:24:42;;;;;;;4.85;2.15;;;;;;;16.25;74.61;99682.97;5125863;27;20584;-59
2023/10/07 10:27:13;;;;;;;3.13;1.95;;;;;;;16.27;74.19;99692.38;5119555;27;20627;-59
2023/10/07 10:29:52;;;;;;;3.38;2.25;;;;;;;16.29;73.39;99695.78;5119858;27;20205;-61
2023/10/07 10:32:28;;;;;;;3.28;1.95;;;;;;;16.29;72.61;99674.97;5126844;27;20199;-63
2023/10/07 10:35:01;;;;;;;5.07;1.63;;;;;;;16.37;71.96;99692.84;5121913;27;20615;-59
2023/10/07 10:37:30;;;;;;;3.13;1.23;;;;;;;16.38;71.27;99690.19;5125081;28;20697;-60
2023/10/07 10:40:05;;;;;;;3.00;1.45;;;;;;;16.39;71.13;99686.69;5125344;27;20203;-62
2023/10/07 10:42:41;;;;;;;2.13;1.30;;;;;;;16.39;70.75;99685.84;5126138;28;20199;-61
2023/10/07 10:45:20;;;;;;;3.42;1.20;;;;;;;16.39;70.74;99686.69;5116483;28;20561;-61
2023/10/07 10:47:50;;;;;;;2.23;1.07;;;;;;;16.39;71.04;99709.25;5119507;27;20215;-60
2023/10/07 10:50:20;;;;;;;2.63;1.55;;;;;;;16.40;71.00;99701.38;5130062;27;20209;-60
2023/10/07 10:52:48;;;;;;;3.63;1.30;;;;;;;16.37;71.21;99693.69;5124523;27;20213;-60
2023/10/07 10:55:17;;;;;;;2.13;1.55;;;;;;;16.35;71.40;99703.34;5115457;27;20196;-62
2023/10/07 10:57:46;;;;;;;1.95;1.40;;;;;;;16.36;71.51;99706.78;5135780;27;20333;-61
2023/10/07 11:00:19;;;;;;;1.40;1.23;;;;;;;16.35;71.53;99700.75;5133764;27;20646;-60
2023/10/07 11:02:47;;;;;;;4.53;1.63;;;;;;;16.34;71.62;99699.03;5126222;27;20203;-60
2023/10/07 11:05:16;;;;;;;3.30;1.10;;;;;;;16.32;71.28;99700.84;5135761;27;20195;-60
2023/10/07 11:07:47;;;;;;;1.63;1.20;;;;;;;16.31;71.58;99703.50;5131098;27;20262;-60
2023/10/07 11:10:20;;;;;;;1.10;1.00;;;;;;;16.28;71.60;99709.69;5131672;27;20240;-61
2023/10/07 11:12:52;;;;;;;3.67;1.40;;;;;;;16.27;71.67;99717.53;5134048;27;20203;-61
2023/10/07 11:15:24;;;;;;;1.92;0.95;;;;;;;16.24;71.36;99708.13;5129986;27;20250;-61
2023/10/07 11:17:54;;;;;;;2.15;1.20;;;;;;;16.23;71.38;99716.81;5133987;27;20188;-60
2023/10/07 11:20:24;;;;;;;3.60;0.93;;;;;;;16.22;71.18;99717.72;5126908;27;20256;-61
2023/10/07 11:22:53;;;;;;;1.73;1.10;;;;;;;16.20;71.42;99714.34;5129106;27;20681;-64
2023/10/07 11:25:24;;;;;;;1.83;1.15;;;;;;;16.19;71.40;99699.66;5131166;27;20215;-63
2023/10/07 11:27:55;;;;;;;2.45;1.10;;;;;;;16.19;71.48;99710.88;5130419;27;20219;-59
2023/10/07 11:30:24;;;;;;;2.80;1.20;;;;;;;16.23;71.74;99715.97;5129915;27;20338;-61
2023/10/07 11:32:52;;;;;;;3.03;1.07;;;;;;;16.23;71.67;99714.22;5117966;27;20302;-62
2023/10/07 11:35:27;;;;;;;2.33;1.07;;;;;;;16.22;71.63;99715.13;5126350;27;20256;-62
2023/10/07 11:37:58;;;;;;;2.10;1.00;;;;;;;16.21;71.52;99716.03;5133376;27;20230;-62
2023/10/07 11:40:27;;;;;;;1.60;1.05;;;;;;;16.21;71.74;99712.59;5128818;27;20206;-61
2023/10/07 11:42:58;;;;;;;2.67;1.20;;;;;;;16.21;71.62;99720.41;5132489;27;20561;-60
2023/10/07 11:45:26;;;;;;;1.80;1.13;;;;;;;16.20;71.82;99722.16;5123478;27;20195;-60
2023/10/07 11:47:57;;;;;;;2.47;1.20;;;;;;;16.22;71.78;99714.28;5131128;27;20223;-60
2023/10/07 11:50:27;;;;;;;2.80;1.50;;;;;;;16.21;71.86;99721.25;5134967;27;20294;-60
2023/10/07 11:52:56;;;;;;;2.22;1.02;;;;;;;16.24;71.93;99718.53;5134457;27;20211;-61
2023/10/07 11:55:25;;;;;;;3.77;1.27;;;;;;;16.23;71.77;99721.16;5126103;27;20223;-62
2023/10/07 11:57:53;;;;;;;3.07;1.33;;;;;;;16.23;71.93;99715.97;5128511;27;20206;-61
2023/10/07 12:00:27;;;;;;;3.47;0.80;;;;;;;16.24;72.00;99710.72;5132256;27;20203;-62
2023/10/07 12:02:57;;;;;;;2.37;1.30;;;;;;;16.26;71.92;99721.03;5132560;27;20199;-64
2023/10/07 12:05:27;;;;;;;1.65;0.82;;;;;;;16.25;71.77;99715.00;5122524;27;20199;-61
2023/10/07 12:07:59;;;;;;;3.30;1.13;;;;;;;16.25;71.90;99733.22;5133126;27;20203;-60
2023/10/07 12:10:28;;;;;;;1.83;1.00;;;;;;;16.23;71.75;99703.81;5128540;27;20202;-62
2023/10/07 12:12:57;;;;;;;5.47;1.10;;;;;;;16.20;71.60;99732.56;5129486;27;20203;-62